ETH601 OMDB-HAAB
Flight info
| Callsign | ETH601 |
|---|---|
| Flight time | 3h 45m |
| Altitude | 35000 |
| Route | ANVIX R401 GIDIS G783 UKRAG L710 KUKDI/N0468F360 B400 NODMA L702 ULALI T701 TORBA UB535 LAKBE LAKBE2A |
| Aircraft | B38M/M-SDE1FGHILORVWXY/HB1 |
Departure
| Time | 2026-04-24 10:10 |
|---|---|
| Airport | Dubai International Airport (OMDB) |
Arrival
| Time | 2026-04-24 13:55 |
|---|---|
| Airport | Addis Ababa Bole International Airport (HAAB) |
| Time | Latitude | Longitude | Altitude | Speed | Heading |
|---|---|---|---|---|---|
| 2026-04-24 10:08 | 25.24578 | 55.38299 | 28 ft | 9 kts | 32° |
| 2026-04-24 10:08 | 25.24640 | 55.38331 | 26 ft | 9 kts | 340° |
| 2026-04-24 10:09 | 25.24677 | 55.38261 | 25 ft | 14 kts | 297° |
| 2026-04-24 10:09 | 25.24732 | 55.38157 | 30 ft | 17 kts | 302° |
| 2026-04-24 10:09 | 25.24802 | 55.38035 | 32 ft | 22 kts | 302° |
| 2026-04-24 10:09 | 25.24895 | 55.37871 | 33 ft | 28 kts | 302° |
| 2026-04-24 10:10 | 25.25097 | 55.37506 | 34 ft | 93 kts | 302° |
| 2026-04-24 10:10 | 25.25555 | 55.36678 | 32 ft | 158 kts | 301° |
| 2026-04-24 10:10 | 25.26176 | 55.35527 | 461 ft | 183 kts | 306° |
| 2026-04-24 10:10 | 25.26884 | 55.34276 | 1230 ft | 200 kts | 304° |
| 2026-04-24 10:11 | 25.27616 | 55.32975 | 2221 ft | 200 kts | 304° |
| 2026-04-24 10:11 | 25.28338 | 55.31617 | 3005 ft | 213 kts | 302° |
| 2026-04-24 10:11 | 25.29145 | 55.30135 | 3581 ft | 236 kts | 303° |
| 2026-04-24 10:11 | 25.29707 | 55.28436 | 4416 ft | 238 kts | 270° |
| 2026-04-24 10:12 | 25.29319 | 55.26696 | 5304 ft | 237 kts | 237° |
| 2026-04-24 10:12 | 25.28658 | 55.25732 | 5854 ft | 240 kts | 229° |
| 2026-04-24 10:12 | 25.27620 | 55.24244 | 6646 ft | 243 kts | 233° |
| 2026-04-24 10:12 | 25.26704 | 55.22720 | 7690 ft | 237 kts | 241° |
| 2026-04-24 10:13 | 25.25980 | 55.21052 | 8465 ft | 243 kts | 244° |
| 2026-04-24 10:13 | 25.25272 | 55.19360 | 9322 ft | 244 kts | 245° |
| 2026-04-24 10:13 | 25.24330 | 55.17759 | 9917 ft | 258 kts | 222° |
| 2026-04-24 10:13 | 25.22754 | 55.16859 | 10718 ft | 260 kts | 194° |
| 2026-04-24 10:14 | 25.20915 | 55.16815 | 11351 ft | 274 kts | 172° |
| 2026-04-24 10:14 | 25.19084 | 55.17590 | 11845 ft | 293 kts | 149° |
| 2026-04-24 10:14 | 25.17581 | 55.19190 | 12369 ft | 309 kts | 126° |
| 2026-04-24 10:14 | 25.16528 | 55.21298 | 13026 ft | 316 kts | 121° |
| 2026-04-24 10:15 | 25.15479 | 55.23442 | 13796 ft | 319 kts | 121° |
| 2026-04-24 10:15 | 25.14420 | 55.25613 | 14413 ft | 324 kts | 120° |
| 2026-04-24 10:15 | 25.13352 | 55.27830 | 15027 ft | 329 kts | 120° |
| 2026-04-24 10:15 | 25.12269 | 55.30076 | 15624 ft | 334 kts | 120° |
| 2026-04-24 10:16 | 25.11170 | 55.32351 | 16206 ft | 339 kts | 120° |
| 2026-04-24 10:16 | 25.10153 | 55.34728 | 16793 ft | 344 kts | 116° |
| 2026-04-24 10:16 | 25.09156 | 55.37142 | 17382 ft | 349 kts | 116° |
| 2026-04-24 10:16 | 25.08130 | 55.39593 | 17938 ft | 354 kts | 116° |
| 2026-04-24 10:17 | 25.07121 | 55.42090 | 18385 ft | 362 kts | 115° |
| 2026-04-24 10:17 | 25.06115 | 55.44714 | 18479 ft | 381 kts | 114° |
| 2026-04-24 10:17 | 25.05054 | 55.47472 | 18527 ft | 400 kts | 114° |
| 2026-04-24 10:17 | 25.03938 | 55.50355 | 18578 ft | 417 kts | 114° |
| 2026-04-24 10:18 | 25.02783 | 55.53338 | 18733 ft | 429 kts | 115° |
| 2026-04-24 10:18 | 25.01474 | 55.56279 | 19201 ft | 428 kts | 122° |
| 2026-04-24 10:18 | 24.99961 | 55.59120 | 19650 ft | 430 kts | 122° |
| 2026-04-24 10:18 | 24.98432 | 55.61968 | 20085 ft | 433 kts | 122° |
| 2026-04-24 10:19 | 24.96891 | 55.64826 | 20538 ft | 435 kts | 122° |
| 2026-04-24 10:19 | 24.95339 | 55.67699 | 20963 ft | 437 kts | 122° |
| 2026-04-24 10:19 | 24.93688 | 55.70510 | 21369 ft | 438 kts | 129° |
| 2026-04-24 10:19 | 24.91893 | 55.73187 | 21766 ft | 441 kts | 128° |
| 2026-04-24 10:20 | 24.90107 | 55.75891 | 22171 ft | 443 kts | 128° |
| 2026-04-24 10:20 | 24.88298 | 55.78653 | 22566 ft | 446 kts | 128° |
| 2026-04-24 10:20 | 24.86483 | 55.81433 | 22952 ft | 449 kts | 128° |
| 2026-04-24 10:20 | 24.84652 | 55.84230 | 23331 ft | 451 kts | 128° |
| 2026-04-24 10:21 | 24.82776 | 55.87013 | 23669 ft | 454 kts | 129° |
| 2026-04-24 10:21 | 24.80737 | 55.89662 | 23960 ft | 453 kts | 140° |
| 2026-04-24 10:21 | 24.78185 | 55.91659 | 24280 ft | 450 kts | 155° |
| 2026-04-24 10:21 | 24.75284 | 55.92903 | 24538 ft | 449 kts | 169° |
| 2026-04-24 10:22 | 24.72195 | 55.93323 | 24838 ft | 446 kts | 181° |
| 2026-04-24 10:22 | 24.69082 | 55.93405 | 25113 ft | 449 kts | 182° |
| 2026-04-24 10:22 | 24.65951 | 55.93410 | 25408 ft | 451 kts | 183° |
| 2026-04-24 10:22 | 24.62832 | 55.93191 | 25680 ft | 450 kts | 194° |
| 2026-04-24 10:23 | 24.59860 | 55.92156 | 25972 ft | 446 kts | 208° |
| 2026-04-24 10:23 | 24.57249 | 55.90329 | 26223 ft | 445 kts | 221° |
| 2026-04-24 10:23 | 24.54841 | 55.88185 | 26510 ft | 447 kts | 222° |
| 2026-04-24 10:23 | 24.52453 | 55.85980 | 26801 ft | 449 kts | 223° |
| 2026-04-24 10:24 | 24.50077 | 55.83741 | 27083 ft | 452 kts | 223° |
| 2026-04-24 10:24 | 24.47700 | 55.81476 | 27369 ft | 454 kts | 224° |
| 2026-04-24 10:24 | 24.45319 | 55.79193 | 27654 ft | 456 kts | 224° |
| 2026-04-24 10:24 | 24.42926 | 55.76895 | 27935 ft | 458 kts | 224° |
| 2026-04-24 10:25 | 24.40524 | 55.74588 | 28202 ft | 460 kts | 224° |
| 2026-04-24 10:25 | 24.38111 | 55.72271 | 28481 ft | 462 kts | 224° |
| 2026-04-24 10:25 | 24.35686 | 55.69944 | 28751 ft | 464 kts | 224° |
| 2026-04-24 10:25 | 24.33245 | 55.67603 | 29024 ft | 466 kts | 224° |
| 2026-04-24 10:26 | 24.30807 | 55.65265 | 29372 ft | 466 kts | 224° |
| 2026-04-24 10:26 | 24.28365 | 55.62928 | 29761 ft | 466 kts | 223° |
| 2026-04-24 10:26 | 24.25659 | 55.60943 | 30124 ft | 471 kts | 208° |
| 2026-04-24 10:26 | 24.22564 | 55.59733 | 30475 ft | 475 kts | 200° |
| 2026-04-24 10:27 | 24.19390 | 55.58724 | 30775 ft | 475 kts | 200° |
| 2026-04-24 10:27 | 24.16208 | 55.57734 | 31106 ft | 475 kts | 200° |
| 2026-04-24 10:27 | 24.13029 | 55.56766 | 31441 ft | 475 kts | 200° |
| 2026-04-24 10:27 | 24.09838 | 55.55807 | 31783 ft | 474 kts | 200° |
| 2026-04-24 10:28 | 24.06663 | 55.54857 | 32128 ft | 473 kts | 200° |
| 2026-04-24 10:28 | 24.03488 | 55.53909 | 32477 ft | 472 kts | 200° |
| 2026-04-24 10:28 | 24.00323 | 55.52966 | 32817 ft | 472 kts | 200° |
| 2026-04-24 10:28 | 23.97155 | 55.52024 | 33163 ft | 471 kts | 200° |
| 2026-04-24 10:29 | 23.93996 | 55.51085 | 33509 ft | 470 kts | 200° |
| 2026-04-24 10:29 | 23.90843 | 55.50148 | 33866 ft | 469 kts | 201° |
| 2026-04-24 10:29 | 23.87701 | 55.49215 | 34141 ft | 468 kts | 201° |
| 2026-04-24 10:29 | 23.84555 | 55.48280 | 34412 ft | 468 kts | 201° |
| 2026-04-24 10:30 | 23.81421 | 55.47349 | 34667 ft | 467 kts | 201° |
| 2026-04-24 10:30 | 23.78281 | 55.46417 | 34850 ft | 468 kts | 201° |
| 2026-04-24 10:30 | 23.75138 | 55.45484 | 34861 ft | 467 kts | 201° |
| 2026-04-24 10:31 | 23.68885 | 55.43630 | 34854 ft | 465 kts | 201° |
| 2026-04-24 10:31 | 23.62630 | 55.41777 | 34850 ft | 466 kts | 201° |
| 2026-04-24 10:32 | 23.56380 | 55.39927 | 34846 ft | 465 kts | 201° |
| 2026-04-24 10:32 | 23.49939 | 55.39204 | 34843 ft | 484 kts | 176° |
| 2026-04-24 10:33 | 23.43300 | 55.40908 | 34836 ft | 492 kts | 170° |
| 2026-04-24 10:33 | 23.36696 | 55.42961 | 34847 ft | 494 kts | 169° |
| 2026-04-24 10:34 | 23.30094 | 55.45038 | 34841 ft | 494 kts | 169° |
| 2026-04-24 10:34 | 23.23487 | 55.47114 | 34839 ft | 494 kts | 169° |
| 2026-04-24 10:35 | 23.16881 | 55.49187 | 34838 ft | 494 kts | 169° |
| 2026-04-24 10:35 | 23.10275 | 55.51259 | 34839 ft | 495 kts | 169° |
| 2026-04-24 10:36 | 23.03664 | 55.53324 | 34833 ft | 494 kts | 169° |
| 2026-04-24 10:36 | 22.97042 | 55.55358 | 34831 ft | 495 kts | 169° |
| 2026-04-24 10:37 | 22.90417 | 55.57394 | 34829 ft | 495 kts | 169° |
| 2026-04-24 10:37 | 22.83788 | 55.59430 | 34828 ft | 495 kts | 169° |
| 2026-04-24 10:38 | 22.77159 | 55.61463 | 34825 ft | 495 kts | 169° |
| 2026-04-24 10:38 | 22.70527 | 55.63496 | 34826 ft | 496 kts | 169° |
| 2026-04-24 10:39 | 22.63891 | 55.65528 | 34817 ft | 496 kts | 169° |
| 2026-04-24 10:39 | 22.57255 | 55.67560 | 34823 ft | 496 kts | 169° |
| 2026-04-24 10:40 | 22.50604 | 55.69595 | 34819 ft | 497 kts | 169° |
| 2026-04-24 10:40 | 22.43948 | 55.71629 | 34821 ft | 497 kts | 169° |
| 2026-04-24 10:41 | 22.37288 | 55.73663 | 34823 ft | 498 kts | 169° |
| 2026-04-24 10:41 | 22.30622 | 55.75696 | 34817 ft | 498 kts | 169° |
| 2026-04-24 10:42 | 22.23907 | 55.77341 | 34817 ft | 488 kts | 182° |
| 2026-04-24 10:42 | 22.17119 | 55.78008 | 34815 ft | 490 kts | 180° |
| 2026-04-24 10:43 | 22.10322 | 55.78689 | 34824 ft | 490 kts | 180° |
| 2026-04-24 10:43 | 22.03573 | 55.79360 | 34826 ft | 491 kts | 180° |
| 2026-04-24 10:44 | 21.96774 | 55.80036 | 34819 ft | 491 kts | 180° |
| 2026-04-24 10:44 | 21.89967 | 55.80711 | 34821 ft | 491 kts | 181° |
| 2026-04-24 10:45 | 21.83162 | 55.81386 | 34823 ft | 491 kts | 181° |
| 2026-04-24 10:45 | 21.76357 | 55.82060 | 34820 ft | 491 kts | 181° |
| 2026-04-24 10:46 | 21.69554 | 55.82731 | 34830 ft | 491 kts | 181° |
| 2026-04-24 10:46 | 21.62747 | 55.83401 | 34829 ft | 491 kts | 181° |
| 2026-04-24 10:47 | 21.55944 | 55.84069 | 34827 ft | 491 kts | 181° |
| 2026-04-24 10:47 | 21.49133 | 55.84737 | 34829 ft | 491 kts | 181° |
| 2026-04-24 10:48 | 21.42319 | 55.85406 | 34822 ft | 492 kts | 181° |
| 2026-04-24 10:48 | 21.35506 | 55.86073 | 34821 ft | 492 kts | 181° |
| 2026-04-24 10:49 | 21.28688 | 55.86740 | 34824 ft | 492 kts | 181° |
| 2026-04-24 10:49 | 21.21871 | 55.87405 | 34820 ft | 492 kts | 181° |
| 2026-04-24 10:50 | 21.15053 | 55.88069 | 34820 ft | 492 kts | 180° |
| 2026-04-24 10:50 | 21.08240 | 55.88726 | 34823 ft | 490 kts | 178° |
| 2026-04-24 10:51 | 21.01452 | 55.89392 | 34817 ft | 490 kts | 179° |
| 2026-04-24 10:51 | 20.94660 | 55.90052 | 34817 ft | 490 kts | 179° |
| 2026-04-24 10:52 | 20.87872 | 55.90711 | 34815 ft | 490 kts | 178° |
| 2026-04-24 10:52 | 20.81079 | 55.91370 | 34816 ft | 490 kts | 178° |
| 2026-04-24 10:53 | 20.74284 | 55.92029 | 34815 ft | 490 kts | 178° |
| 2026-04-24 10:53 | 20.67491 | 55.92687 | 34814 ft | 491 kts | 178° |
| 2026-04-24 10:54 | 20.60686 | 55.93346 | 34821 ft | 491 kts | 178° |
| 2026-04-24 10:54 | 20.53881 | 55.94004 | 34819 ft | 491 kts | 178° |
| 2026-04-24 10:55 | 20.47062 | 55.94663 | 34823 ft | 492 kts | 178° |
| 2026-04-24 10:55 | 20.40251 | 55.95320 | 34823 ft | 492 kts | 178° |
| 2026-04-24 10:56 | 20.33432 | 55.95978 | 34823 ft | 492 kts | 178° |
| 2026-04-24 10:56 | 20.26601 | 55.96629 | 34820 ft | 492 kts | 178° |
| 2026-04-24 10:57 | 20.19780 | 55.97280 | 34820 ft | 493 kts | 178° |
| 2026-04-24 10:57 | 20.12947 | 55.97930 | 34823 ft | 493 kts | 178° |
| 2026-04-24 10:58 | 20.06167 | 55.98343 | 34831 ft | 490 kts | 183° |
| 2026-04-24 10:58 | 19.99340 | 55.98487 | 34820 ft | 491 kts | 182° |
| 2026-04-24 10:59 | 19.92498 | 55.98672 | 34823 ft | 492 kts | 182° |
| 2026-04-24 10:59 | 19.85657 | 55.98859 | 34823 ft | 492 kts | 182° |
| 2026-04-24 11:00 | 19.78815 | 55.99046 | 34824 ft | 492 kts | 182° |
| 2026-04-24 11:00 | 19.73118 | 55.99202 | 34822 ft | 493 kts | 182° |
| 2026-04-24 11:01 | 19.66261 | 55.99389 | 34821 ft | 493 kts | 182° |
| 2026-04-24 11:01 | 19.59402 | 55.99577 | 34821 ft | 494 kts | 182° |
| 2026-04-24 11:02 | 19.52548 | 55.99579 | 34814 ft | 488 kts | 193° |
| 2026-04-24 11:02 | 19.49324 | 55.98667 | 34824 ft | 476 kts | 208° |
| 2026-04-24 11:02 | 19.46387 | 55.97079 | 34825 ft | 474 kts | 213° |
| 2026-04-24 11:03 | 19.40612 | 55.93708 | 34821 ft | 474 kts | 214° |
| 2026-04-24 11:03 | 19.34880 | 55.90259 | 34821 ft | 474 kts | 214° |
| 2026-04-24 11:04 | 19.29156 | 55.86794 | 34821 ft | 474 kts | 214° |
| 2026-04-24 11:04 | 19.23438 | 55.83333 | 34821 ft | 474 kts | 214° |
| 2026-04-24 11:05 | 19.17714 | 55.79872 | 34823 ft | 474 kts | 214° |
| 2026-04-24 11:05 | 19.11988 | 55.76412 | 34825 ft | 474 kts | 214° |
| 2026-04-24 11:06 | 19.06269 | 55.72959 | 34826 ft | 474 kts | 214° |
| 2026-04-24 11:06 | 19.00540 | 55.69503 | 34824 ft | 474 kts | 214° |
| 2026-04-24 11:07 | 18.91995 | 55.64355 | 34829 ft | 473 kts | 215° |
| 2026-04-24 11:07 | 18.86269 | 55.60908 | 34825 ft | 474 kts | 214° |
| 2026-04-24 11:08 | 18.80550 | 55.57469 | 34823 ft | 474 kts | 214° |
| 2026-04-24 11:08 | 18.74823 | 55.54027 | 34826 ft | 474 kts | 215° |
| 2026-04-24 11:09 | 18.69090 | 55.50584 | 34829 ft | 474 kts | 214° |
| 2026-04-24 11:09 | 18.63364 | 55.47149 | 34829 ft | 474 kts | 214° |
| 2026-04-24 11:10 | 18.57629 | 55.43710 | 34829 ft | 474 kts | 215° |
| 2026-04-24 11:10 | 18.51899 | 55.40278 | 34833 ft | 474 kts | 214° |
| 2026-04-24 11:11 | 18.46157 | 55.36840 | 34832 ft | 474 kts | 214° |
| 2026-04-24 11:11 | 18.40418 | 55.33407 | 34834 ft | 474 kts | 214° |
| 2026-04-24 11:12 | 18.34680 | 55.29979 | 34837 ft | 475 kts | 214° |
| 2026-04-24 11:12 | 18.28933 | 55.26547 | 34837 ft | 475 kts | 214° |
| 2026-04-24 11:13 | 18.23184 | 55.23119 | 34838 ft | 475 kts | 214° |
| 2026-04-24 11:13 | 18.17432 | 55.19689 | 34836 ft | 476 kts | 214° |
| 2026-04-24 11:14 | 18.11490 | 55.16571 | 34848 ft | 480 kts | 208° |
| 2026-04-24 11:14 | 18.05348 | 55.13789 | 34839 ft | 481 kts | 208° |
| 2026-04-24 11:15 | 17.99196 | 55.11024 | 34839 ft | 481 kts | 208° |
| 2026-04-24 11:15 | 17.93036 | 55.08260 | 34846 ft | 481 kts | 208° |
| 2026-04-24 11:16 | 17.86870 | 55.05494 | 34842 ft | 482 kts | 208° |
| 2026-04-24 11:16 | 17.80707 | 55.02732 | 34845 ft | 482 kts | 208° |
| 2026-04-24 11:17 | 17.74537 | 54.99969 | 34849 ft | 482 kts | 208° |
| 2026-04-24 11:17 | 17.68359 | 54.97205 | 34852 ft | 483 kts | 208° |
| 2026-04-24 11:18 | 17.62176 | 54.94440 | 34859 ft | 483 kts | 208° |
| 2026-04-24 11:18 | 17.55996 | 54.91678 | 34863 ft | 483 kts | 208° |
| 2026-04-24 11:19 | 17.49849 | 54.88934 | 34875 ft | 484 kts | 208° |
| 2026-04-24 11:19 | 17.43659 | 54.86172 | 34876 ft | 483 kts | 208° |
| 2026-04-24 11:20 | 17.37468 | 54.83412 | 34882 ft | 484 kts | 208° |
| 2026-04-24 11:20 | 17.31272 | 54.80652 | 34879 ft | 484 kts | 208° |
| 2026-04-24 11:21 | 17.25270 | 54.77589 | 34887 ft | 474 kts | 219° |
| 2026-04-24 11:21 | 17.19690 | 54.73849 | 34883 ft | 477 kts | 218° |
| 2026-04-24 11:22 | 17.14106 | 54.70114 | 34885 ft | 476 kts | 218° |
| 2026-04-24 11:22 | 17.08519 | 54.66378 | 34880 ft | 477 kts | 218° |
| 2026-04-24 11:23 | 17.02935 | 54.62645 | 34890 ft | 477 kts | 218° |
| 2026-04-24 11:23 | 16.97343 | 54.58910 | 34875 ft | 477 kts | 218° |
| 2026-04-24 11:24 | 16.91749 | 54.55176 | 34871 ft | 477 kts | 218° |
| 2026-04-24 11:24 | 16.86156 | 54.51444 | 34861 ft | 477 kts | 218° |
| 2026-04-24 11:25 | 16.80562 | 54.47713 | 34856 ft | 477 kts | 218° |
| 2026-04-24 11:25 | 16.74970 | 54.43987 | 34854 ft | 477 kts | 218° |
| 2026-04-24 11:26 | 16.69371 | 54.40259 | 34853 ft | 477 kts | 218° |
| 2026-04-24 11:26 | 16.63770 | 54.36531 | 34853 ft | 478 kts | 218° |
| 2026-04-24 11:27 | 16.58166 | 54.32805 | 34854 ft | 478 kts | 218° |
| 2026-04-24 11:27 | 16.52567 | 54.29083 | 34853 ft | 478 kts | 218° |
| 2026-04-24 11:28 | 16.46960 | 54.25360 | 34856 ft | 478 kts | 218° |
| 2026-04-24 11:28 | 16.41352 | 54.21638 | 34855 ft | 478 kts | 218° |
| 2026-04-24 11:29 | 16.35740 | 54.17917 | 34855 ft | 478 kts | 218° |
| 2026-04-24 11:29 | 16.30130 | 54.14199 | 34859 ft | 478 kts | 218° |
| 2026-04-24 11:30 | 16.24557 | 54.10509 | 34859 ft | 478 kts | 218° |
| 2026-04-24 11:30 | 16.18943 | 54.06793 | 34862 ft | 478 kts | 218° |
| 2026-04-24 11:31 | 16.13323 | 54.03077 | 34861 ft | 478 kts | 218° |
| 2026-04-24 11:31 | 16.07708 | 53.99366 | 34864 ft | 478 kts | 218° |
| 2026-04-24 11:32 | 16.02088 | 53.95654 | 34859 ft | 478 kts | 218° |
| 2026-04-24 11:32 | 15.96471 | 53.91947 | 34864 ft | 478 kts | 218° |
| 2026-04-24 11:33 | 15.90848 | 53.88238 | 34861 ft | 478 kts | 218° |
| 2026-04-24 11:33 | 15.85247 | 53.84508 | 34862 ft | 478 kts | 219° |
| 2026-04-24 11:34 | 15.79649 | 53.80765 | 34861 ft | 478 kts | 219° |
| 2026-04-24 11:34 | 15.74059 | 53.77032 | 34862 ft | 478 kts | 219° |
| 2026-04-24 11:35 | 15.68455 | 53.73292 | 34863 ft | 478 kts | 219° |
| 2026-04-24 11:35 | 15.62856 | 53.69558 | 34862 ft | 479 kts | 219° |
| 2026-04-24 11:36 | 15.57254 | 53.65824 | 34862 ft | 478 kts | 219° |
| 2026-04-24 11:36 | 15.51655 | 53.62095 | 34861 ft | 478 kts | 219° |
| 2026-04-24 11:37 | 15.46129 | 53.58351 | 34855 ft | 474 kts | 224° |
| 2026-04-24 11:37 | 15.43816 | 53.56009 | 34852 ft | 458 kts | 240° |
| 2026-04-24 11:37 | 15.42207 | 53.53213 | 34882 ft | 449 kts | 249° |
| 2026-04-24 11:38 | 15.39431 | 53.47399 | 34861 ft | 450 kts | 250° |
| 2026-04-24 11:38 | 15.36770 | 53.41533 | 34859 ft | 449 kts | 251° |
| 2026-04-24 11:39 | 15.34146 | 53.35662 | 34861 ft | 449 kts | 251° |
| 2026-04-24 11:39 | 15.31526 | 53.29790 | 34861 ft | 449 kts | 251° |
| 2026-04-24 11:40 | 15.28905 | 53.23922 | 34863 ft | 449 kts | 251° |
| 2026-04-24 11:40 | 15.26287 | 53.18064 | 34861 ft | 448 kts | 251° |
| 2026-04-24 11:41 | 15.23664 | 53.12201 | 34856 ft | 448 kts | 251° |
| 2026-04-24 11:41 | 15.21043 | 53.06346 | 34859 ft | 448 kts | 251° |
| 2026-04-24 11:42 | 15.18420 | 53.00492 | 34861 ft | 448 kts | 251° |
| 2026-04-24 11:42 | 15.15796 | 52.94641 | 34861 ft | 448 kts | 251° |
| 2026-04-24 11:43 | 15.13173 | 52.88797 | 34858 ft | 448 kts | 251° |
| 2026-04-24 11:43 | 15.10547 | 52.82949 | 34855 ft | 448 kts | 251° |
| 2026-04-24 11:44 | 15.07920 | 52.77105 | 34852 ft | 448 kts | 250° |
| 2026-04-24 11:44 | 15.05291 | 52.71261 | 34854 ft | 448 kts | 250° |
| 2026-04-24 11:45 | 15.02660 | 52.65419 | 34859 ft | 448 kts | 250° |
| 2026-04-24 11:45 | 15.00029 | 52.59580 | 34859 ft | 448 kts | 250° |
| 2026-04-24 11:46 | 14.97395 | 52.53739 | 34858 ft | 448 kts | 250° |
| 2026-04-24 11:46 | 14.94761 | 52.47903 | 34857 ft | 448 kts | 250° |
| 2026-04-24 11:47 | 14.92123 | 52.42064 | 34855 ft | 448 kts | 250° |
| 2026-04-24 11:47 | 14.89484 | 52.36226 | 34852 ft | 448 kts | 250° |
| 2026-04-24 11:48 | 14.86856 | 52.30426 | 34853 ft | 449 kts | 250° |
| 2026-04-24 11:48 | 14.84610 | 52.25553 | 34857 ft | 449 kts | 250° |
| 2026-04-24 11:49 | 14.81929 | 52.19730 | 34855 ft | 449 kts | 250° |
| 2026-04-24 11:49 | 14.79246 | 52.13906 | 34849 ft | 449 kts | 250° |
| 2026-04-24 11:50 | 14.76561 | 52.08085 | 34847 ft | 449 kts | 250° |
| 2026-04-24 11:50 | 14.73876 | 52.02265 | 34854 ft | 449 kts | 250° |
| 2026-04-24 11:51 | 14.71192 | 51.96454 | 34856 ft | 448 kts | 250° |
| 2026-04-24 11:51 | 14.68525 | 51.90683 | 34848 ft | 448 kts | 250° |
| 2026-04-24 11:52 | 14.65856 | 51.84868 | 34854 ft | 447 kts | 250° |
| 2026-04-24 11:52 | 14.63205 | 51.79056 | 34851 ft | 448 kts | 250° |
| 2026-04-24 11:53 | 14.60551 | 51.73243 | 34845 ft | 447 kts | 250° |
| 2026-04-24 11:53 | 14.57896 | 51.67435 | 34843 ft | 447 kts | 250° |
| 2026-04-24 11:54 | 14.55239 | 51.61623 | 34853 ft | 447 kts | 250° |
| 2026-04-24 11:54 | 14.52582 | 51.55820 | 34839 ft | 448 kts | 250° |
| 2026-04-24 11:55 | 14.49920 | 51.50008 | 34840 ft | 448 kts | 250° |
| 2026-04-24 11:55 | 14.47256 | 51.44197 | 34837 ft | 448 kts | 250° |
| 2026-04-24 11:56 | 14.44591 | 51.38386 | 34848 ft | 448 kts | 250° |
| 2026-04-24 11:56 | 14.41919 | 51.32567 | 34846 ft | 449 kts | 250° |
| 2026-04-24 11:57 | 14.39247 | 51.26753 | 34841 ft | 449 kts | 250° |
| 2026-04-24 11:57 | 14.36569 | 51.20929 | 34848 ft | 449 kts | 250° |
| 2026-04-24 11:58 | 14.33890 | 51.15108 | 34846 ft | 449 kts | 249° |
| 2026-04-24 11:58 | 14.31210 | 51.09288 | 34847 ft | 450 kts | 250° |
| 2026-04-24 11:59 | 14.28525 | 51.03462 | 34850 ft | 450 kts | 249° |
| 2026-04-24 11:59 | 14.25856 | 50.97676 | 34843 ft | 450 kts | 250° |
| 2026-04-24 12:00 | 14.23150 | 50.91813 | 34847 ft | 450 kts | 249° |
| 2026-04-24 12:00 | 14.20480 | 50.86033 | 34843 ft | 450 kts | 250° |
| 2026-04-24 12:01 | 14.17790 | 50.80215 | 34847 ft | 450 kts | 250° |
| 2026-04-24 12:01 | 14.15098 | 50.74396 | 34841 ft | 450 kts | 250° |
| 2026-04-24 12:02 | 14.12406 | 50.68580 | 34846 ft | 450 kts | 249° |
| 2026-04-24 12:02 | 14.09471 | 50.62860 | 34846 ft | 453 kts | 246° |
| 2026-04-24 12:03 | 14.06413 | 50.57191 | 34833 ft | 452 kts | 246° |
| 2026-04-24 12:03 | 14.03372 | 50.51514 | 34837 ft | 453 kts | 246° |
| 2026-04-24 12:04 | 14.00336 | 50.45848 | 34843 ft | 452 kts | 246° |
| 2026-04-24 12:04 | 13.97293 | 50.40173 | 34839 ft | 452 kts | 246° |
| 2026-04-24 12:05 | 13.94253 | 50.34507 | 34842 ft | 452 kts | 246° |
| 2026-04-24 12:05 | 13.91213 | 50.28845 | 34836 ft | 452 kts | 246° |
| 2026-04-24 12:06 | 13.88172 | 50.23185 | 34837 ft | 452 kts | 246° |
| 2026-04-24 12:06 | 13.85128 | 50.17523 | 34836 ft | 452 kts | 246° |
| 2026-04-24 12:07 | 13.82081 | 50.11860 | 34836 ft | 452 kts | 246° |
| 2026-04-24 12:07 | 13.79034 | 50.06195 | 34837 ft | 452 kts | 246° |
| 2026-04-24 12:08 | 13.75998 | 50.00532 | 34835 ft | 452 kts | 246° |
| 2026-04-24 12:08 | 13.72957 | 49.94864 | 34836 ft | 453 kts | 246° |
| 2026-04-24 12:09 | 13.69932 | 49.89233 | 34837 ft | 453 kts | 246° |
| 2026-04-24 12:09 | 13.66887 | 49.83566 | 34828 ft | 453 kts | 246° |
| 2026-04-24 12:10 | 13.63837 | 49.77893 | 34838 ft | 453 kts | 246° |
| 2026-04-24 12:11 | 13.59262 | 49.69391 | 34833 ft | 453 kts | 246° |
| 2026-04-24 12:11 | 13.56207 | 49.63721 | 34832 ft | 453 kts | 246° |
| 2026-04-24 12:12 | 13.53151 | 49.58051 | 34831 ft | 454 kts | 246° |
| 2026-04-24 12:12 | 13.50092 | 49.52379 | 34832 ft | 454 kts | 246° |
| 2026-04-24 12:13 | 13.47031 | 49.46708 | 34830 ft | 454 kts | 246° |
| 2026-04-24 12:13 | 13.43970 | 49.41039 | 34828 ft | 454 kts | 246° |
| 2026-04-24 12:14 | 13.40906 | 49.35370 | 34826 ft | 454 kts | 246° |
| 2026-04-24 12:14 | 13.37842 | 49.29704 | 34826 ft | 454 kts | 246° |
| 2026-04-24 12:15 | 13.34774 | 49.24034 | 34826 ft | 454 kts | 246° |
| 2026-04-24 12:15 | 13.31715 | 49.18363 | 34825 ft | 454 kts | 246° |
| 2026-04-24 12:16 | 13.28686 | 49.12679 | 34826 ft | 454 kts | 246° |
| 2026-04-24 12:16 | 13.25651 | 49.06993 | 34824 ft | 454 kts | 246° |
| 2026-04-24 12:17 | 13.22615 | 49.01312 | 34825 ft | 454 kts | 246° |
| 2026-04-24 12:17 | 13.19577 | 48.95628 | 34820 ft | 454 kts | 246° |
| 2026-04-24 12:18 | 13.16540 | 48.89951 | 34819 ft | 454 kts | 246° |
| 2026-04-24 12:18 | 13.13498 | 48.84268 | 34818 ft | 454 kts | 246° |
| 2026-04-24 12:19 | 13.10457 | 48.78592 | 34821 ft | 454 kts | 246° |
| 2026-04-24 12:19 | 13.07413 | 48.72913 | 34819 ft | 454 kts | 246° |
| 2026-04-24 12:20 | 13.04365 | 48.67230 | 34820 ft | 455 kts | 246° |
| 2026-04-24 12:20 | 13.01315 | 48.61548 | 34817 ft | 455 kts | 246° |
| 2026-04-24 12:21 | 12.98262 | 48.55863 | 34814 ft | 455 kts | 246° |
| 2026-04-24 12:21 | 12.95210 | 48.50184 | 34815 ft | 455 kts | 246° |
| 2026-04-24 12:22 | 12.92157 | 48.44507 | 34815 ft | 455 kts | 246° |
| 2026-04-24 12:22 | 12.89119 | 48.38861 | 34813 ft | 455 kts | 246° |
| 2026-04-24 12:23 | 12.86060 | 48.33180 | 34811 ft | 455 kts | 246° |
| 2026-04-24 12:23 | 12.82998 | 48.27496 | 34808 ft | 455 kts | 245° |
| 2026-04-24 12:24 | 12.79935 | 48.21815 | 34809 ft | 456 kts | 246° |
| 2026-04-24 12:24 | 12.76871 | 48.16136 | 34810 ft | 456 kts | 245° |
| 2026-04-24 12:25 | 12.73804 | 48.10454 | 34809 ft | 456 kts | 246° |
| 2026-04-24 12:25 | 12.70734 | 48.04771 | 34809 ft | 456 kts | 245° |
| 2026-04-24 12:26 | 12.67663 | 47.99090 | 34809 ft | 456 kts | 245° |
| 2026-04-24 12:26 | 12.64590 | 47.93407 | 34809 ft | 456 kts | 245° |
| 2026-04-24 12:27 | 12.61512 | 47.87722 | 34808 ft | 456 kts | 245° |
| 2026-04-24 12:27 | 12.58439 | 47.82047 | 34807 ft | 456 kts | 245° |
| 2026-04-24 12:28 | 12.55360 | 47.76365 | 34807 ft | 456 kts | 245° |
| 2026-04-24 12:28 | 12.52283 | 47.70689 | 34809 ft | 456 kts | 245° |
| 2026-04-24 12:29 | 12.49205 | 47.65015 | 34805 ft | 456 kts | 245° |
| 2026-04-24 12:29 | 12.46121 | 47.59335 | 34809 ft | 456 kts | 245° |
| 2026-04-24 12:30 | 12.43040 | 47.53662 | 34807 ft | 456 kts | 245° |
| 2026-04-24 12:30 | 12.40640 | 47.47819 | 34796 ft | 443 kts | 265° |
| 2026-04-24 12:31 | 12.40032 | 47.41550 | 34801 ft | 443 kts | 268° |
| 2026-04-24 12:31 | 12.39566 | 47.35265 | 34805 ft | 443 kts | 269° |
| 2026-04-24 12:32 | 12.39146 | 47.28978 | 34805 ft | 443 kts | 269° |
| 2026-04-24 12:32 | 12.38732 | 47.22697 | 34801 ft | 443 kts | 269° |
| 2026-04-24 12:33 | 12.38318 | 47.16413 | 34802 ft | 443 kts | 269° |
| 2026-04-24 12:33 | 12.37902 | 47.10126 | 34796 ft | 443 kts | 269° |
| 2026-04-24 12:34 | 12.37493 | 47.03838 | 34801 ft | 443 kts | 269° |
| 2026-04-24 12:34 | 12.37098 | 46.97543 | 34799 ft | 443 kts | 269° |
| 2026-04-24 12:35 | 12.36700 | 46.91254 | 34794 ft | 443 kts | 269° |
| 2026-04-24 12:35 | 12.36301 | 46.84959 | 34797 ft | 443 kts | 269° |
| 2026-04-24 12:36 | 12.35901 | 46.78666 | 34796 ft | 443 kts | 269° |
| 2026-04-24 12:36 | 12.35499 | 46.72376 | 34793 ft | 443 kts | 269° |
| 2026-04-24 12:37 | 12.35095 | 46.66082 | 34792 ft | 443 kts | 269° |
| 2026-04-24 12:37 | 12.34690 | 46.59790 | 34793 ft | 444 kts | 269° |
| 2026-04-24 12:38 | 12.34352 | 46.54553 | 34793 ft | 443 kts | 269° |
| 2026-04-24 12:38 | 12.33945 | 46.48266 | 34787 ft | 444 kts | 269° |
| 2026-04-24 12:39 | 12.33125 | 46.35675 | 34788 ft | 444 kts | 269° |
| 2026-04-24 12:40 | 12.32713 | 46.29380 | 34790 ft | 444 kts | 269° |
| 2026-04-24 12:40 | 12.32300 | 46.23081 | 34790 ft | 444 kts | 269° |
| 2026-04-24 12:41 | 12.31885 | 46.16788 | 34791 ft | 444 kts | 269° |
| 2026-04-24 12:41 | 12.31468 | 46.10494 | 34786 ft | 444 kts | 269° |
| 2026-04-24 12:42 | 12.31050 | 46.04196 | 34788 ft | 444 kts | 269° |
| 2026-04-24 12:42 | 12.30631 | 45.97904 | 34784 ft | 444 kts | 269° |
| 2026-04-24 12:43 | 12.30211 | 45.91614 | 34786 ft | 444 kts | 269° |
| 2026-04-24 12:43 | 12.29788 | 45.85319 | 34787 ft | 443 kts | 269° |
| 2026-04-24 12:44 | 12.29365 | 45.79033 | 34790 ft | 443 kts | 269° |
| 2026-04-24 12:44 | 12.28941 | 45.72744 | 34789 ft | 443 kts | 269° |
| 2026-04-24 12:45 | 12.28514 | 45.66454 | 34783 ft | 443 kts | 269° |
| 2026-04-24 12:45 | 12.28090 | 45.60210 | 34789 ft | 443 kts | 269° |
| 2026-04-24 12:46 | 12.27661 | 45.53925 | 34789 ft | 443 kts | 269° |
| 2026-04-24 12:46 | 12.27231 | 45.47635 | 34788 ft | 443 kts | 269° |
| 2026-04-24 12:47 | 12.26800 | 45.41349 | 34788 ft | 443 kts | 269° |
| 2026-04-24 12:47 | 12.26394 | 45.35061 | 34789 ft | 443 kts | 269° |
| 2026-04-24 12:48 | 12.25991 | 45.28768 | 34784 ft | 443 kts | 269° |
| 2026-04-24 12:48 | 12.25586 | 45.22478 | 34786 ft | 443 kts | 269° |
| 2026-04-24 12:49 | 12.25181 | 45.16187 | 34785 ft | 444 kts | 269° |
| 2026-04-24 12:49 | 12.24773 | 45.09891 | 34783 ft | 444 kts | 269° |
| 2026-04-24 12:50 | 12.24364 | 45.03599 | 34784 ft | 444 kts | 269° |
| 2026-04-24 12:50 | 12.23953 | 44.97298 | 34781 ft | 444 kts | 269° |
| 2026-04-24 12:51 | 12.23542 | 44.91003 | 34780 ft | 444 kts | 269° |
| 2026-04-24 12:51 | 12.23128 | 44.84703 | 34780 ft | 444 kts | 269° |
| 2026-04-24 12:52 | 12.22712 | 44.78399 | 34779 ft | 444 kts | 269° |
| 2026-04-24 12:52 | 12.22296 | 44.72098 | 34781 ft | 444 kts | 269° |
| 2026-04-24 12:53 | 12.21878 | 44.65801 | 34777 ft | 444 kts | 269° |
| 2026-04-24 12:53 | 12.21461 | 44.59531 | 34774 ft | 445 kts | 269° |
| 2026-04-24 12:54 | 12.21039 | 44.53229 | 34781 ft | 445 kts | 269° |
| 2026-04-24 12:54 | 12.20617 | 44.46923 | 34776 ft | 445 kts | 269° |
| 2026-04-24 12:55 | 12.20192 | 44.40607 | 34776 ft | 445 kts | 269° |
| 2026-04-24 12:55 | 12.19766 | 44.34299 | 34776 ft | 445 kts | 269° |
| 2026-04-24 12:56 | 12.19339 | 44.27989 | 34776 ft | 445 kts | 269° |
| 2026-04-24 12:56 | 12.18910 | 44.21680 | 34773 ft | 445 kts | 269° |
| 2026-04-24 12:57 | 12.18480 | 44.15370 | 34767 ft | 445 kts | 269° |
| 2026-04-24 12:57 | 12.18048 | 44.09056 | 34767 ft | 445 kts | 269° |
| 2026-04-24 12:58 | 12.16835 | 44.02865 | 34762 ft | 454 kts | 248° |
| 2026-04-24 12:58 | 12.13440 | 43.97346 | 34755 ft | 461 kts | 240° |
| 2026-04-24 12:59 | 12.09840 | 43.91915 | 34759 ft | 462 kts | 240° |
| 2026-04-24 12:59 | 12.06201 | 43.86515 | 34756 ft | 462 kts | 239° |
| 2026-04-24 13:00 | 12.02553 | 43.81116 | 34762 ft | 462 kts | 239° |
| 2026-04-24 13:00 | 11.98903 | 43.75717 | 34765 ft | 462 kts | 239° |
| 2026-04-24 13:01 | 11.95252 | 43.70321 | 34753 ft | 462 kts | 239° |
| 2026-04-24 13:01 | 11.91596 | 43.64921 | 34757 ft | 462 kts | 239° |
| 2026-04-24 13:02 | 11.87954 | 43.59516 | 34759 ft | 462 kts | 240° |
| 2026-04-24 13:02 | 11.84400 | 43.54106 | 34762 ft | 462 kts | 240° |
| 2026-04-24 13:03 | 11.81397 | 43.49548 | 34759 ft | 462 kts | 240° |
| 2026-04-24 13:03 | 11.81094 | 43.49087 | 34758 ft | 462 kts | 240° |
| 2026-04-24 13:04 | 11.77460 | 43.43575 | 34758 ft | 462 kts | 240° |
| 2026-04-24 13:04 | 11.73865 | 43.38127 | 34760 ft | 462 kts | 240° |
| 2026-04-24 13:05 | 11.70270 | 43.32681 | 34761 ft | 463 kts | 240° |
| 2026-04-24 13:05 | 11.66676 | 43.27238 | 34758 ft | 463 kts | 240° |
| 2026-04-24 13:06 | 11.63080 | 43.21797 | 34758 ft | 463 kts | 240° |
| 2026-04-24 13:06 | 11.59485 | 43.16358 | 34764 ft | 463 kts | 240° |
| 2026-04-24 13:07 | 11.55885 | 43.10917 | 34764 ft | 462 kts | 240° |
| 2026-04-24 13:07 | 11.52748 | 43.05245 | 34772 ft | 459 kts | 245° |
| 2026-04-24 13:08 | 11.49672 | 42.99542 | 34772 ft | 459 kts | 245° |
| 2026-04-24 13:08 | 11.46571 | 42.93848 | 34776 ft | 459 kts | 245° |
| 2026-04-24 13:09 | 11.41921 | 42.85324 | 34775 ft | 458 kts | 245° |
| 2026-04-24 13:09 | 11.38821 | 42.79646 | 34768 ft | 458 kts | 245° |
| 2026-04-24 13:10 | 11.35725 | 42.73978 | 34766 ft | 458 kts | 245° |
| 2026-04-24 13:10 | 11.32629 | 42.68313 | 34770 ft | 458 kts | 245° |
| 2026-04-24 13:11 | 11.29529 | 42.62645 | 34763 ft | 457 kts | 245° |
| 2026-04-24 13:11 | 11.26433 | 42.56987 | 34760 ft | 458 kts | 245° |
| 2026-04-24 13:12 | 11.23353 | 42.51365 | 34755 ft | 457 kts | 244° |
| 2026-04-24 13:12 | 11.20231 | 42.45666 | 34749 ft | 457 kts | 244° |
| 2026-04-24 13:13 | 11.17152 | 42.40048 | 34743 ft | 457 kts | 244° |
| 2026-04-24 13:13 | 11.14052 | 42.34395 | 34736 ft | 457 kts | 244° |
| 2026-04-24 13:14 | 11.10950 | 42.28742 | 34733 ft | 457 kts | 244° |
| 2026-04-24 13:14 | 11.07849 | 42.23094 | 34729 ft | 457 kts | 244° |
| 2026-04-24 13:15 | 11.04749 | 42.17450 | 34725 ft | 457 kts | 244° |
| 2026-04-24 13:15 | 11.01070 | 42.12132 | 34725 ft | 461 kts | 237° |
| 2026-04-24 13:16 | 10.97230 | 42.06916 | 34722 ft | 461 kts | 237° |
| 2026-04-24 13:16 | 10.93380 | 42.01705 | 34726 ft | 461 kts | 237° |
| 2026-04-24 13:17 | 10.89531 | 41.96499 | 34726 ft | 460 kts | 237° |
| 2026-04-24 13:17 | 10.85682 | 41.91295 | 34732 ft | 460 kts | 237° |
| 2026-04-24 13:18 | 10.81830 | 41.86089 | 34731 ft | 460 kts | 237° |
| 2026-04-24 13:18 | 10.77991 | 41.80905 | 34735 ft | 460 kts | 237° |
| 2026-04-24 13:19 | 10.74127 | 41.75688 | 34738 ft | 461 kts | 237° |
| 2026-04-24 13:19 | 10.70276 | 41.70492 | 34741 ft | 461 kts | 237° |
| 2026-04-24 13:20 | 10.66411 | 41.65279 | 34747 ft | 461 kts | 237° |
| 2026-04-24 13:20 | 10.62547 | 41.60071 | 34750 ft | 461 kts | 237° |
| 2026-04-24 13:21 | 10.58683 | 41.54864 | 34752 ft | 462 kts | 237° |
| 2026-04-24 13:21 | 10.54816 | 41.49656 | 34754 ft | 462 kts | 237° |
| 2026-04-24 13:22 | 10.50945 | 41.44445 | 34757 ft | 462 kts | 237° |
| 2026-04-24 13:22 | 10.47101 | 41.39272 | 34755 ft | 462 kts | 237° |
| 2026-04-24 13:23 | 10.43229 | 41.34065 | 34758 ft | 462 kts | 237° |
| 2026-04-24 13:23 | 10.39352 | 41.28853 | 34759 ft | 462 kts | 237° |
| 2026-04-24 13:24 | 10.35477 | 41.23647 | 34758 ft | 462 kts | 236° |
| 2026-04-24 13:24 | 10.31600 | 41.18439 | 34756 ft | 462 kts | 236° |
| 2026-04-24 13:25 | 10.27717 | 41.13227 | 34760 ft | 463 kts | 236° |
| 2026-04-24 13:25 | 10.23834 | 41.08017 | 34764 ft | 463 kts | 236° |
| 2026-04-24 13:26 | 10.19950 | 41.02808 | 34761 ft | 463 kts | 236° |
| 2026-04-24 13:26 | 10.16721 | 40.98479 | 34765 ft | 463 kts | 236° |
| 2026-04-24 13:27 | 10.12807 | 40.93234 | 34762 ft | 463 kts | 236° |
| 2026-04-24 13:27 | 10.08942 | 40.88057 | 34765 ft | 463 kts | 236° |
| 2026-04-24 13:28 | 10.05054 | 40.82851 | 34771 ft | 463 kts | 236° |
| 2026-04-24 13:28 | 10.01157 | 40.77636 | 34767 ft | 463 kts | 236° |
| 2026-04-24 13:29 | 9.97262 | 40.72427 | 34765 ft | 464 kts | 236° |
| 2026-04-24 13:29 | 9.93363 | 40.67213 | 34768 ft | 464 kts | 236° |
| 2026-04-24 13:30 | 9.89461 | 40.61998 | 34771 ft | 464 kts | 236° |
| 2026-04-24 13:30 | 9.85562 | 40.56789 | 34769 ft | 464 kts | 236° |
| 2026-04-24 13:31 | 9.81653 | 40.51570 | 34772 ft | 465 kts | 236° |
| 2026-04-24 13:31 | 9.77743 | 40.46351 | 34774 ft | 465 kts | 236° |
| 2026-04-24 13:32 | 9.73837 | 40.41139 | 34772 ft | 465 kts | 236° |
| 2026-04-24 13:32 | 9.69926 | 40.35923 | 34777 ft | 464 kts | 236° |
| 2026-04-24 13:33 | 9.66392 | 40.30470 | 34786 ft | 463 kts | 240° |
| 2026-04-24 13:33 | 9.62870 | 40.25014 | 34782 ft | 462 kts | 239° |
| 2026-04-24 13:34 | 9.59362 | 40.19610 | 34790 ft | 462 kts | 239° |
| 2026-04-24 13:34 | 9.55826 | 40.14166 | 34793 ft | 462 kts | 239° |
| 2026-04-24 13:35 | 9.52293 | 40.08731 | 34804 ft | 462 kts | 239° |
| 2026-04-24 13:35 | 9.48761 | 40.03297 | 34815 ft | 462 kts | 239° |
| 2026-04-24 13:36 | 9.45223 | 39.97859 | 34827 ft | 462 kts | 239° |
| 2026-04-24 13:36 | 9.41687 | 39.92424 | 34835 ft | 462 kts | 239° |
| 2026-04-24 13:37 | 9.38146 | 39.86987 | 34842 ft | 463 kts | 239° |
| 2026-04-24 13:37 | 9.34605 | 39.81550 | 34859 ft | 463 kts | 239° |
| 2026-04-24 13:38 | 9.31064 | 39.76115 | 34867 ft | 463 kts | 239° |
| 2026-04-24 13:38 | 9.27517 | 39.70674 | 34865 ft | 463 kts | 239° |
| 2026-04-24 13:39 | 9.23969 | 39.65234 | 34880 ft | 463 kts | 239° |
| 2026-04-24 13:39 | 9.20419 | 39.59793 | 34888 ft | 464 kts | 239° |
| 2026-04-24 13:40 | 9.16866 | 39.54353 | 34431 ft | 460 kts | 238° |
| 2026-04-24 13:40 | 9.15098 | 39.51644 | 33555 ft | 464 kts | 238° |
| 2026-04-24 13:40 | 9.13292 | 39.48880 | 32144 ft | 478 kts | 238° |
| 2026-04-24 13:41 | 9.11463 | 39.46069 | 31329 ft | 474 kts | 238° |
| 2026-04-24 13:41 | 9.09657 | 39.43311 | 30453 ft | 466 kts | 237° |
| 2026-04-24 13:41 | 9.07887 | 39.40596 | 29496 ft | 458 kts | 237° |
| 2026-04-24 13:41 | 9.06143 | 39.37929 | 28468 ft | 452 kts | 237° |
| 2026-04-24 13:42 | 9.04409 | 39.35278 | 27195 ft | 452 kts | 237° |
| 2026-04-24 13:42 | 9.02668 | 39.32618 | 25838 ft | 456 kts | 236° |
| 2026-04-24 13:42 | 9.00913 | 39.29932 | 24441 ft | 460 kts | 236° |
| 2026-04-24 13:42 | 8.99142 | 39.27217 | 22927 ft | 465 kts | 237° |
| 2026-04-24 13:43 | 8.97717 | 39.24272 | 21381 ft | 469 kts | 251° |
| 2026-04-24 13:43 | 8.97041 | 39.21067 | 20218 ft | 463 kts | 261° |
| 2026-04-24 13:43 | 8.96594 | 39.17856 | 19052 ft | 458 kts | 262° |
| 2026-04-24 13:43 | 8.96238 | 39.14864 | 18037 ft | 453 kts | 263° |
| 2026-04-24 13:44 | 8.95894 | 39.11714 | 16912 ft | 448 kts | 264° |
| 2026-04-24 13:44 | 8.95574 | 39.08651 | 16360 ft | 429 kts | 264° |
| 2026-04-24 13:44 | 8.95277 | 39.05714 | 15754 ft | 415 kts | 264° |
| 2026-04-24 13:44 | 8.94993 | 39.02848 | 15148 ft | 403 kts | 265° |
| 2026-04-24 13:45 | 8.94715 | 39.00067 | 14551 ft | 392 kts | 264° |
| 2026-04-24 13:45 | 8.94445 | 38.97337 | 14224 ft | 385 kts | 264° |
| 2026-04-24 13:45 | 8.94178 | 38.94754 | 14267 ft | 357 kts | 261° |
| 2026-04-24 13:45 | 8.93486 | 38.92470 | 14228 ft | 334 kts | 244° |
| 2026-04-24 13:46 | 8.92454 | 38.90414 | 14134 ft | 316 kts | 242° |
| 2026-04-24 13:46 | 8.91442 | 38.88503 | 14009 ft | 301 kts | 240° |
| 2026-04-24 13:46 | 8.90431 | 38.86660 | 13849 ft | 294 kts | 240° |
| 2026-04-24 13:46 | 8.89450 | 38.84917 | 13687 ft | 286 kts | 240° |
| 2026-04-24 13:47 | 8.88478 | 38.83205 | 13545 ft | 276 kts | 239° |
| 2026-04-24 13:47 | 8.87543 | 38.81555 | 13425 ft | 268 kts | 240° |
| 2026-04-24 13:47 | 8.86610 | 38.79934 | 13342 ft | 261 kts | 239° |
| 2026-04-24 13:47 | 8.85716 | 38.78391 | 13228 ft | 249 kts | 238° |
| 2026-04-24 13:48 | 8.84845 | 38.76913 | 13035 ft | 240 kts | 238° |
| 2026-04-24 13:48 | 8.84007 | 38.75494 | 12876 ft | 230 kts | 237° |
| 2026-04-24 13:48 | 8.83202 | 38.74123 | 12764 ft | 230 kts | 238° |
| 2026-04-24 13:48 | 8.82370 | 38.72711 | 12683 ft | 235 kts | 237° |
| 2026-04-24 13:49 | 8.81534 | 38.71283 | 12595 ft | 236 kts | 237° |
| 2026-04-24 13:49 | 8.80704 | 38.69847 | 12471 ft | 236 kts | 238° |
| 2026-04-24 13:49 | 8.80168 | 38.68277 | 12163 ft | 239 kts | 265° |
| 2026-04-24 13:49 | 8.80333 | 38.66641 | 11860 ft | 234 kts | 289° |
| 2026-04-24 13:50 | 8.81004 | 38.65175 | 11551 ft | 227 kts | 311° |
| 2026-04-24 13:50 | 8.82207 | 38.64256 | 11369 ft | 209 kts | 338° |
| 2026-04-24 13:50 | 8.83501 | 38.63710 | 11271 ft | 202 kts | 331° |
| 2026-04-24 13:50 | 8.84641 | 38.62816 | 11248 ft | 211 kts | 323° |
| 2026-04-24 13:51 | 8.85921 | 38.62110 | 11265 ft | 210 kts | 350° |
| 2026-04-24 13:51 | 8.87363 | 38.62022 | 11263 ft | 207 kts | 12° |
| 2026-04-24 13:51 | 8.88727 | 38.62425 | 11094 ft | 203 kts | 31° |
| 2026-04-24 13:51 | 8.89877 | 38.63204 | 10956 ft | 198 kts | 43° |
| 2026-04-24 13:52 | 8.90924 | 38.64113 | 10864 ft | 198 kts | 46° |
| 2026-04-24 13:52 | 8.91906 | 38.65050 | 10749 ft | 191 kts | 46° |
| 2026-04-24 13:52 | 8.92741 | 38.66053 | 10461 ft | 184 kts | 59° |
| 2026-04-24 13:52 | 8.93377 | 38.67154 | 10148 ft | 179 kts | 68° |
| 2026-04-24 13:53 | 8.93877 | 38.68286 | 9953 ft | 175 kts | 70° |
| 2026-04-24 13:53 | 8.94358 | 38.69409 | 9805 ft | 174 kts | 69° |
| 2026-04-24 13:53 | 8.94820 | 38.70538 | 9451 ft | 173 kts | 71° |
| 2026-04-24 13:53 | 8.95252 | 38.71659 | 9044 ft | 170 kts | 73° |
| 2026-04-24 13:54 | 8.95648 | 38.72784 | 8767 ft | 170 kts | 72° |
| 2026-04-24 13:54 | 8.96081 | 38.73891 | 8716 ft | 170 kts | 72° |
| 2026-04-24 13:54 | 8.96454 | 38.75020 | 8454 ft | 177 kts | 77° |
| 2026-04-24 13:54 | 8.96783 | 38.76228 | 8240 ft | 171 kts | 75° |
| 2026-04-24 13:55 | 8.97132 | 38.77347 | 7848 ft | 165 kts | 72° |
| 2026-04-24 13:55 | 8.97453 | 38.78427 | 7649 ft | 157 kts | 76° |
| 2026-04-24 13:55 | 8.97722 | 38.79351 | 7620 ft | 104 kts | 72° |
| 2026-04-24 13:55 | 8.97868 | 38.79838 | 7624 ft | 47 kts | 73° |
| 2026-04-24 13:56 | 8.97945 | 38.80103 | 7625 ft | 29 kts | 73° |
| 2026-04-24 13:56 | 8.98023 | 38.80165 | 7625 ft | 8 kts | 344° |
| 2026-04-24 13:56 | 8.98067 | 38.80151 | 7624 ft | 7 kts | 343° |
| 2026-04-24 13:56 | 8.98122 | 38.80134 | 7624 ft | 8 kts | 343° |
| 2026-04-24 13:57 | 8.98166 | 38.80121 | 7623 ft | 0 kts | 343° |
| 2026-04-24 13:57 | 8.98167 | 38.80121 | 7623 ft | 1 kts | 343° |
| 2026-04-24 13:57 | 8.98195 | 38.80112 | 7623 ft | 6 kts | 343° |
| 2026-04-24 13:57 | 8.98229 | 38.80102 | 7623 ft | 5 kts | 343° |
| 2026-04-24 13:58 | 8.98265 | 38.80088 | 7623 ft | 6 kts | 328° |
| 2026-04-24 13:58 | 8.98283 | 38.80056 | 7623 ft | 5 kts | 274° |
| 2026-04-24 13:58 | 8.98275 | 38.80018 | 7623 ft | 6 kts | 257° |
| 2026-04-24 13:58 | 8.98275 | 38.79987 | 7623 ft | 3 kts | 301° |
| 2026-04-24 13:59 | 8.98287 | 38.79982 | 7623 ft | 2 kts | 352° |
| 2026-04-24 13:59 | 8.98314 | 38.79978 | 7623 ft | 7 kts | 348° |
| 2026-04-24 13:59 | 8.98332 | 38.79973 | 7623 ft | 0 kts | 345° |
| 2026-04-24 13:59 | 8.98333 | 38.79973 | 7623 ft | 0 kts | 342° |